createdAt,value
2018-12-20T00:03:06.860Z,11.23
2018-12-20T00:05:39.498Z,11.20
2018-12-20T00:08:11.949Z,11.22
2018-12-20T00:10:42.616Z,11.29
2018-12-20T00:13:12.809Z,11.35
2018-12-20T00:15:41.426Z,11.17
2018-12-20T00:18:09.933Z,11.17
2018-12-20T00:20:38.876Z,11.22
2018-12-20T00:23:07.374Z,11.10
2018-12-20T00:28:12.624Z,11.11
2018-12-20T00:30:41.257Z,11.05
2018-12-20T00:33:12.087Z,11.15
2018-12-20T00:35:40.773Z,11.06
2018-12-20T00:38:09.522Z,11.00
2018-12-20T00:40:39.355Z,11.11
2018-12-20T00:43:09.081Z,11.05
2018-12-20T00:45:39.515Z,11.09
2018-12-20T00:48:09.206Z,11.21
2018-12-20T00:50:37.948Z,11.20
2018-12-20T00:53:07.680Z,11.16
2018-12-20T00:55:35.876Z,11.20
2018-12-20T00:58:04.956Z,11.40
2018-12-20T01:00:33.397Z,11.30
2018-12-20T01:03:01.688Z,11.26
2018-12-20T01:05:41.105Z,11.09
2018-12-20T01:08:12.207Z,11.18
2018-12-20T01:10:41.640Z,11.11
2018-12-20T01:13:09.836Z,11.11
2018-12-20T01:15:39.297Z,11.16
2018-12-20T01:18:07.954Z,11.24
2018-12-20T01:20:36.075Z,11.34
2018-12-20T01:23:04.303Z,11.35
2018-12-20T01:25:33.075Z,11.40
2018-12-20T01:28:02.844Z,11.35
2018-12-20T01:30:33.769Z,11.45
2018-12-20T01:33:09.223Z,11.51
2018-12-20T01:35:38.055Z,11.33
2018-12-20T01:38:06.858Z,11.37
2018-12-20T01:40:35.516Z,11.22
2018-12-20T01:43:04.414Z,11.43
2018-12-20T01:45:32.920Z,11.36
2018-12-20T01:48:01.542Z,11.35
2018-12-20T01:50:32.570Z,11.33
2018-12-20T01:53:00.955Z,11.22
2018-12-20T01:55:29.980Z,11.33
2018-12-20T01:57:59.064Z,11.22
2018-12-20T02:00:28.028Z,11.27
2018-12-20T02:03:01.710Z,11.21
2018-12-20T02:05:30.503Z,11.13
2018-12-20T02:08:05.083Z,11.17
2018-12-20T02:10:33.378Z,11.17
2018-12-20T02:13:02.879Z,11.21
2018-12-20T02:15:31.501Z,11.31
2018-12-20T02:18:02.508Z,11.32
2018-12-20T02:20:31.602Z,11.35
2018-12-20T02:23:00.293Z,11.41
2018-12-20T02:25:28.529Z,11.54
2018-12-20T02:27:58.147Z,11.59
2018-12-20T02:30:27.027Z,11.62
2018-12-20T02:33:08.882Z,11.53
2018-12-20T02:38:13.666Z,11.58
2018-12-20T02:40:41.960Z,11.26
2018-12-20T02:43:10.356Z,11.43
2018-12-20T02:45:38.922Z,11.48
2018-12-20T02:48:07.050Z,11.32
2018-12-20T02:50:35.224Z,11.42
2018-12-20T02:53:03.421Z,11.45
2018-12-20T02:55:32.330Z,11.51
2018-12-20T02:58:01.626Z,11.53
2018-12-20T03:00:30.033Z,11.39
2018-12-20T03:02:58.719Z,10.65
2018-12-20T03:11:10.299Z,11.58
2018-12-20T03:13:38.823Z,11.67
2018-12-20T03:16:07.806Z,11.70
2018-12-20T03:18:36.122Z,11.53
2018-12-20T03:21:04.563Z,11.59
2018-12-20T03:23:36.639Z,11.73
2018-12-20T03:26:04.842Z,11.72
2018-12-20T03:28:33.076Z,11.37
2018-12-20T03:31:02.508Z,11.53
2018-12-20T03:36:17.108Z,11.61
2018-12-20T03:38:45.690Z,11.70
2018-12-20T03:41:14.186Z,11.56
2018-12-20T03:43:42.802Z,11.66
2018-12-20T03:46:11.430Z,11.33
2018-12-20T03:48:41.561Z,11.76
2018-12-20T03:51:11.222Z,11.73
2018-12-20T03:53:39.507Z,11.86
2018-12-20T03:56:08.549Z,11.84
2018-12-20T03:58:41.774Z,11.79
2018-12-20T04:03:55.289Z,11.73
2018-12-20T04:06:23.961Z,11.53
2018-12-20T04:08:53.862Z,11.80
2018-12-20T04:11:22.426Z,11.90
2018-12-20T04:13:50.537Z,11.97
2018-12-20T04:16:18.992Z,11.89
2018-12-20T04:18:47.797Z,11.89
2018-12-20T04:21:18.015Z,11.79
2018-12-20T04:23:47.053Z,11.82
2018-12-20T04:26:15.248Z,11.73
2018-12-20T04:28:44.269Z,11.71
2018-12-20T04:31:13.059Z,11.78
2018-12-20T04:33:41.740Z,11.87
2018-12-20T04:36:13.078Z,11.78
2018-12-20T04:38:41.604Z,11.74
2018-12-20T04:41:12.637Z,11.42
2018-12-20T04:43:44.474Z,11.05
2018-12-20T04:46:14.124Z,10.76
2018-12-20T04:48:42.615Z,10.61
2018-12-20T04:51:10.878Z,10.87
2018-12-20T04:53:39.439Z,10.89
2018-12-20T04:56:12.356Z,10.77
2018-12-20T04:58:41.737Z,10.24
2018-12-20T05:01:10.334Z,10.17
2018-12-20T05:03:39.368Z,10.62
2018-12-20T05:06:09.916Z,10.86
2018-12-20T05:08:40.288Z,10.90
2018-12-20T05:11:08.658Z,11.01
2018-12-20T05:13:37.218Z,10.68
2018-12-20T05:16:06.221Z,10.55
2018-12-20T05:18:34.714Z,10.63
2018-12-20T05:21:03.488Z,10.47
2018-12-20T05:23:32.807Z,10.18
2018-12-20T05:26:01.258Z,10.20
2018-12-20T05:28:32.379Z,10.19
2018-12-20T05:31:01.803Z,10.32
2018-12-20T05:33:30.839Z,10.31
2018-12-20T05:37:51.266Z,10.06
2018-12-20T05:40:20.897Z,10.05
2018-12-20T05:42:52.611Z,10.22
2018-12-20T05:45:25.178Z,10.06
2018-12-20T05:47:55.783Z,10.13
2018-12-20T05:50:26.204Z,10.45
2018-12-20T05:52:55.692Z,10.31
2018-12-20T05:55:24.845Z,10.33
2018-12-20T05:57:53.417Z,10.28
2018-12-20T06:00:21.974Z,10.25
2018-12-20T06:02:51.266Z,10.32
2018-12-20T06:05:20.615Z,10.57
2018-12-20T06:07:50.586Z,10.69
2018-12-20T06:10:19.763Z,10.51
2018-12-20T06:12:47.983Z,10.32
2018-12-20T06:15:17.857Z,10.41
2018-12-20T06:17:46.397Z,10.38
2018-12-20T06:20:15.209Z,10.47
2018-12-20T06:25:00.028Z,10.11
2018-12-20T06:27:28.290Z,10.23
2018-12-20T06:29:56.335Z,10.36
2018-12-20T06:32:25.286Z,10.41
2018-12-20T06:34:53.799Z,10.26
2018-12-20T06:37:22.614Z,10.41
2018-12-20T06:39:52.714Z,10.52
2018-12-20T06:42:21.680Z,10.81
2018-12-20T06:48:04.017Z,10.65
2018-12-20T06:50:33.959Z,10.61
2018-12-20T06:53:02.437Z,10.07
2018-12-20T06:55:33.479Z,10.75
2018-12-20T06:58:03.951Z,11.04
2018-12-20T07:00:33.303Z,10.93
2018-12-20T07:03:08.705Z,10.84
2018-12-20T07:05:37.041Z,11.11
2018-12-20T07:08:06.986Z,11.24
2018-12-20T07:10:36.102Z,11.24
2018-12-20T07:13:05.476Z,11.16
2018-12-20T07:15:34.609Z,11.13
2018-12-20T07:18:04.041Z,11.17
2018-12-20T07:20:57.111Z,11.21
2018-12-20T07:23:40.397Z,11.23
2018-12-20T07:26:09.389Z,11.36
2018-12-20T07:28:37.834Z,11.37
2018-12-20T07:31:07.138Z,11.53
2018-12-20T07:33:36.303Z,11.57
2018-12-20T07:36:18.891Z,11.16
2018-12-20T07:38:47.959Z,11.08
2018-12-20T07:41:16.830Z,11.01
2018-12-20T07:43:45.579Z,11.03
2018-12-20T07:49:02.753Z,10.69
2018-12-20T07:51:34.441Z,11.10
2018-12-20T07:54:06.127Z,11.10
2018-12-20T07:58:36.990Z,11.30
2018-12-20T08:01:08.110Z,10.91
2018-12-20T08:08:28.253Z,10.75
2018-12-20T08:10:59.488Z,11.03
2018-12-20T08:13:28.122Z,10.48
2018-12-20T08:15:58.122Z,10.79
2018-12-20T08:18:30.983Z,10.83
2018-12-20T08:21:04.699Z,10.56
2018-12-20T08:23:38.562Z,10.85
2018-12-20T08:26:07.461Z,10.77
2018-12-20T08:28:37.004Z,10.68
2018-12-20T08:34:09.640Z,10.72
2018-12-20T08:36:39.883Z,10.61
2018-12-20T08:39:08.774Z,10.72
2018-12-20T08:41:37.070Z,10.42
2018-12-20T08:44:08.055Z,10.42
2018-12-20T09:29:28.677Z,10.63
2018-12-20T09:31:57.442Z,10.63
2018-12-20T09:34:28.289Z,10.56
2018-12-20T09:36:57.129Z,10.53
2018-12-20T09:39:27.343Z,10.73
2018-12-20T09:41:59.624Z,10.78
2018-12-20T09:44:27.822Z,11.02
2018-12-20T09:47:11.415Z,10.88
2018-12-20T09:49:40.097Z,10.65
2018-12-20T09:52:10.455Z,10.59
2018-12-20T09:54:39.037Z,10.75
2018-12-20T09:57:08.371Z,10.75
2018-12-20T09:59:37.671Z,10.84
2018-12-20T10:02:10.492Z,10.81
2018-12-20T10:04:40.041Z,10.85
2018-12-20T10:07:09.688Z,10.99
2018-12-20T10:09:41.999Z,10.84
2018-12-20T10:12:10.943Z,10.98
2018-12-20T10:14:41.121Z,11.07
2018-12-20T10:17:19.821Z,11.34
2018-12-20T10:19:47.529Z,11.21
2018-12-20T10:22:18.427Z,11.10
2018-12-20T10:24:51.770Z,11.09
2018-12-20T10:27:31.243Z,10.98
2018-12-20T10:29:54.615Z,11.07
2018-12-20T10:32:23.507Z,11.30
2018-12-20T10:34:52.275Z,11.37
2018-12-20T10:37:21.434Z,11.18
2018-12-20T10:39:52.333Z,11.27
2018-12-20T10:42:29.726Z,11.28
2018-12-20T10:45:15.127Z,11.07
2018-12-20T10:50:31.988Z,11.08
2018-12-20T10:53:03.186Z,11.46
2018-12-20T10:55:34.743Z,11.61
2018-12-20T10:58:04.421Z,11.51
2018-12-20T11:00:41.263Z,11.42
2018-12-20T11:03:16.545Z,10.90
2018-12-20T11:05:50.785Z,10.95
2018-12-20T11:08:24.508Z,11.31
2018-12-20T11:13:42.097Z,11.24
2018-12-20T11:16:11.451Z,11.63
2018-12-20T11:18:40.815Z,11.72
2018-12-20T11:21:09.535Z,11.77
2018-12-20T11:23:40.104Z,11.99
2018-12-20T11:26:10.387Z,12.00
2018-12-20T11:28:39.638Z,11.95
2018-12-20T11:31:11.035Z,11.85
2018-12-20T11:33:39.869Z,11.95
2018-12-20T11:36:09.402Z,11.90
2018-12-20T11:38:38.893Z,12.05
2018-12-20T11:41:07.193Z,12.19
2018-12-20T11:43:38.831Z,12.35
2018-12-20T11:48:02.497Z,12.23
2018-12-20T11:50:32.818Z,12.23
2018-12-20T11:53:01.279Z,12.19
2018-12-20T11:55:33.135Z,12.07
2018-12-20T11:58:06.004Z,12.22
2018-12-20T12:00:38.030Z,12.31
2018-12-20T12:03:09.053Z,12.06
2018-12-20T12:05:37.178Z,12.07
2018-12-20T12:08:07.742Z,12.20
2018-12-20T12:10:36.820Z,12.27
2018-12-20T12:13:06.694Z,12.24
2018-12-20T12:15:42.855Z,12.27
2018-12-20T12:19:12.862Z,12.10
2018-12-20T12:21:42.281Z,12.44
2018-12-20T12:24:15.584Z,12.28
2018-12-20T12:26:45.452Z,12.24
2018-12-20T12:29:14.362Z,12.53
2018-12-20T12:31:48.532Z,12.85
2018-12-20T12:34:16.907Z,13.07
2018-12-20T12:36:46.416Z,13.21
2018-12-20T12:39:16.120Z,13.12
2018-12-20T12:41:45.374Z,13.04
2018-12-20T12:44:15.843Z,13.05
2018-12-20T12:47:32.925Z,13.09
2018-12-20T12:50:03.392Z,12.84
2018-12-20T12:52:31.795Z,12.82
2018-12-20T12:55:03.293Z,12.83
2018-12-20T12:58:44.392Z,13.18
2018-12-20T13:01:15.610Z,13.08
2018-12-20T13:03:48.249Z,12.70
2018-12-20T13:06:18.096Z,12.65
2018-12-20T13:08:46.188Z,12.67
2018-12-20T13:11:18.162Z,12.47
2018-12-20T13:13:46.627Z,12.36
2018-12-20T13:16:17.510Z,12.33
2018-12-20T13:18:47.732Z,12.57
2018-12-20T13:21:24.034Z,12.57
2018-12-20T13:23:53.004Z,12.48
2018-12-20T13:26:32.387Z,12.34
2018-12-20T13:30:22.544Z,12.47
2018-12-20T13:32:50.988Z,12.42
2018-12-20T13:35:26.658Z,12.38
2018-12-20T13:40:40.978Z,12.23
2018-12-20T13:43:11.575Z,12.45
2018-12-20T13:47:42.142Z,12.23
2018-12-20T13:50:13.686Z,12.25
2018-12-20T13:52:45.202Z,12.41
2018-12-20T13:55:15.713Z,12.31
2018-12-20T14:00:16.581Z,12.31
2018-12-20T14:02:54.229Z,12.16
2018-12-20T14:05:24.750Z,12.19
2018-12-20T14:08:06.106Z,12.20
2018-12-20T14:10:46.673Z,12.29
2018-12-20T14:13:16.596Z,12.27
2018-12-20T14:15:49.275Z,12.40
2018-12-20T14:18:31.154Z,12.33
2018-12-20T14:21:09.343Z,11.92
2018-12-20T14:23:41.532Z,11.87
2018-12-20T14:26:10.620Z,12.05
2018-12-20T14:28:41.084Z,11.83
2018-12-20T14:31:14.327Z,11.71
2018-12-20T14:33:53.130Z,11.66
2018-12-20T14:36:23.910Z,11.58
2018-12-20T14:38:52.162Z,11.64
2018-12-20T14:41:21.903Z,11.43
2018-12-20T14:43:52.617Z,11.42
2018-12-20T14:46:22.838Z,11.42
2018-12-20T14:54:08.532Z,11.47
2018-12-20T14:56:37.142Z,11.37
2018-12-20T14:59:20.762Z,11.46
2018-12-20T15:01:51.520Z,11.57
2018-12-20T15:04:22.107Z,11.65
2018-12-20T15:06:55.276Z,11.47
2018-12-20T15:09:43.062Z,11.47
2018-12-20T15:12:24.552Z,11.40
2018-12-20T15:18:04.893Z,11.18
2018-12-20T15:20:40.772Z,11.21
2018-12-20T15:23:15.552Z,11.24
2018-12-20T15:25:53.384Z,11.31
2018-12-20T15:28:28.187Z,11.28
2018-12-20T15:31:02.592Z,11.26
2018-12-20T15:33:33.643Z,11.31
2018-12-20T15:36:23.827Z,10.53
2018-12-20T15:39:04.504Z,11.42
2018-12-20T15:41:40.184Z,11.32
2018-12-20T15:44:17.754Z,11.46
2018-12-20T15:46:49.446Z,11.57
2018-12-20T15:49:26.486Z,11.38
2018-12-20T15:52:16.025Z,11.28
2018-12-20T15:54:58.637Z,11.29
2018-12-20T15:57:32.737Z,11.26
2018-12-20T16:00:08.423Z,11.33
2018-12-20T16:03:03.314Z,11.35
2018-12-20T16:05:44.012Z,11.45
2018-12-20T16:08:21.772Z,11.39
2018-12-20T16:11:05.076Z,11.57
2018-12-20T16:13:46.991Z,11.59
2018-12-20T16:16:19.257Z,11.52
2018-12-20T16:18:51.655Z,11.51
2018-12-20T16:21:21.407Z,11.49
2018-12-20T16:23:52.520Z,11.45
2018-12-20T16:26:26.235Z,11.37
2018-12-20T16:28:59.563Z,11.50
2018-12-20T16:31:32.826Z,11.56
2018-12-20T16:34:05.306Z,11.41
2018-12-20T16:36:36.572Z,11.50
2018-12-20T16:39:17.345Z,11.48
2018-12-20T16:41:48.690Z,11.45
2018-12-20T16:44:26.385Z,11.57
2018-12-20T16:47:05.633Z,11.52
2018-12-20T16:52:18.092Z,11.80
2018-12-20T16:54:54.495Z,11.69
2018-12-20T17:02:05.667Z,11.44
2018-12-20T17:04:37.727Z,11.45
2018-12-20T17:07:09.226Z,11.42
2018-12-20T17:09:54.783Z,11.40
2018-12-20T17:12:24.381Z,11.13
2018-12-20T17:14:55.049Z,10.83
2018-12-20T17:26:24.866Z,11.11
2018-12-20T17:28:58.439Z,11.15
2018-12-20T17:31:27.248Z,11.24
2018-12-20T17:33:56.836Z,11.26
2018-12-20T17:36:25.857Z,11.22
2018-12-20T17:38:56.063Z,11.20
2018-12-20T17:41:25.506Z,11.31
2018-12-20T17:44:02.703Z,11.41
2018-12-20T17:49:46.253Z,11.32
2018-12-20T17:52:19.004Z,11.17
2018-12-20T17:54:51.607Z,11.27
2018-12-20T17:57:30.346Z,11.18
2018-12-20T18:00:00.372Z,11.23
2018-12-20T18:02:36.760Z,11.17
2018-12-20T18:05:24.589Z,11.21
2018-12-20T18:10:48.045Z,11.22
2018-12-20T18:13:18.280Z,11.29
2018-12-20T18:15:47.873Z,11.17
2018-12-20T18:18:20.161Z,11.04
2018-12-20T18:21:01.324Z,11.22
2018-12-20T18:23:31.875Z,11.24
2018-12-20T18:27:48.667Z,11.13
2018-12-20T18:30:21.313Z,10.98
2018-12-20T18:32:49.823Z,10.98
2018-12-20T18:35:19.984Z,11.01
2018-12-20T18:37:52.626Z,10.94
2018-12-20T18:40:23.303Z,11.15
2018-12-20T18:42:51.604Z,11.12
2018-12-20T18:45:20.782Z,11.02
2018-12-20T18:47:51.512Z,10.96
2018-12-20T18:50:24.677Z,11.15
2018-12-20T18:52:57.575Z,10.98
2018-12-20T18:55:30.782Z,11.06
2018-12-20T18:58:02.084Z,11.13
2018-12-20T19:00:37.044Z,11.16
2018-12-20T19:03:07.289Z,11.10
2018-12-20T19:05:36.982Z,11.16
2018-12-20T19:08:08.155Z,11.10
2018-12-20T19:10:38.809Z,10.99
2018-12-20T19:13:09.818Z,10.99
2018-12-20T19:15:38.891Z,11.18
2018-12-20T19:18:12.092Z,11.04
2018-12-20T19:20:41.498Z,11.23
2018-12-20T19:23:10.335Z,11.15
2018-12-20T19:25:38.632Z,11.09
2018-12-20T19:28:10.353Z,11.05
2018-12-20T19:30:39.825Z,11.03
2018-12-20T19:33:09.393Z,11.03
2018-12-20T19:35:39.400Z,11.11
2018-12-20T19:38:07.954Z,11.27
2018-12-20T19:40:44.876Z,11.23
2018-12-20T19:43:17.041Z,11.10
2018-12-20T19:45:52.053Z,11.03
2018-12-20T19:48:25.943Z,11.15
2018-12-20T19:50:58.103Z,11.20
2018-12-20T19:53:27.197Z,11.14
2018-12-20T19:55:59.273Z,11.17
2018-12-20T19:58:30.799Z,11.25
2018-12-20T20:01:00.738Z,11.14
2018-12-20T20:03:31.631Z,11.21
2018-12-20T20:06:02.646Z,11.19
2018-12-20T20:08:33.382Z,11.15
2018-12-20T20:11:02.835Z,11.17
2018-12-20T20:15:41.667Z,11.25
2018-12-20T20:18:13.881Z,11.42
2018-12-20T20:20:51.946Z,11.40
2018-12-20T20:23:35.865Z,11.25
2018-12-20T20:26:04.875Z,11.23
2018-12-20T20:28:34.707Z,11.19
2018-12-20T20:31:08.380Z,11.29
2018-12-20T20:33:40.118Z,11.27
2018-12-20T20:36:18.937Z,11.48
2018-12-20T20:38:52.539Z,11.46
2018-12-20T20:41:27.978Z,11.21
2018-12-20T20:44:00.388Z,11.39
2018-12-20T20:49:22.256Z,11.36
2018-12-20T20:51:51.911Z,11.44
2018-12-20T20:54:28.722Z,11.50
2018-12-20T20:57:07.495Z,11.54
2018-12-20T20:59:50.640Z,11.55
2018-12-20T21:02:16.516Z,11.40
2018-12-20T21:04:54.480Z,11.37
2018-12-20T21:07:33.237Z,11.52
2018-12-20T21:10:02.956Z,11.50
2018-12-20T21:12:42.433Z,11.51
2018-12-20T21:15:19.837Z,11.57
2018-12-20T21:17:50.579Z,11.47
2018-12-20T21:20:30.625Z,11.61
2018-12-20T21:22:58.161Z,11.68
2018-12-20T21:25:47.291Z,11.76
2018-12-20T21:28:24.278Z,11.79
2018-12-20T21:33:37.287Z,11.89
2018-12-20T21:36:09.322Z,11.84
2018-12-20T21:38:48.294Z,11.75
2018-12-20T21:41:18.960Z,11.68
2018-12-20T21:43:50.102Z,11.75
2018-12-20T21:46:23.296Z,11.60
2018-12-20T21:48:55.463Z,11.56
2018-12-20T21:51:25.141Z,11.43
2018-12-20T21:53:58.446Z,11.46
2018-12-20T21:56:27.925Z,11.57
2018-12-20T21:59:01.673Z,11.57
2018-12-20T22:01:32.452Z,11.46
2018-12-20T22:04:12.593Z,11.32
2018-12-20T22:06:44.985Z,11.36
2018-12-20T22:09:17.794Z,11.15
2018-12-20T22:11:52.059Z,11.23
2018-12-20T22:14:26.904Z,11.42
2018-12-20T22:17:02.882Z,11.52
2018-12-20T22:19:43.229Z,11.38
2018-12-20T22:22:15.615Z,11.31
2018-12-20T22:24:52.043Z,11.41
2018-12-20T22:27:23.659Z,11.52
2018-12-20T22:29:55.394Z,11.33
2018-12-20T22:32:23.873Z,11.41
2018-12-20T22:34:56.674Z,11.46
2018-12-20T22:37:30.171Z,11.37
2018-12-20T22:40:01.095Z,11.53
2018-12-20T22:42:36.290Z,11.50
2018-12-20T22:45:16.952Z,11.57
2018-12-20T22:47:50.871Z,11.53
2018-12-20T22:50:22.758Z,11.48
2018-12-20T22:52:53.948Z,11.60
2018-12-20T22:55:26.087Z,11.66
2018-12-20T22:57:56.989Z,11.59
2018-12-20T23:00:26.576Z,11.50
2018-12-20T23:02:56.543Z,11.59
2018-12-20T23:05:30.675Z,11.72
2018-12-20T23:08:03.170Z,11.61
2018-12-20T23:10:44.679Z,11.66
2018-12-20T23:13:20.893Z,11.78
2018-12-20T23:15:51.041Z,11.66
2018-12-20T23:18:26.144Z,11.59
2018-12-20T23:26:52.591Z,11.65
2018-12-20T23:29:23.223Z,11.66
2018-12-20T23:32:04.863Z,11.46
2018-12-20T23:34:35.604Z,11.38
2018-12-20T23:37:06.771Z,11.51
2018-12-20T23:39:36.590Z,11.43
2018-12-20T23:42:12.079Z,11.55
2018-12-20T23:46:39.383Z,11.51
2018-12-20T23:49:09.677Z,11.52
2018-12-20T23:51:45.287Z,11.61
2018-12-20T23:56:35.570Z,11.56
2018-12-20T23:59:10.631Z,11.61
